sensor_id;sensor_type;location;lat;lon;timestamp;temperature;humidity
7447;DHT22;3765;47.962;7.952;2023-02-11T00:01:20;-3276.30;69.70
7447;DHT22;3765;47.962;7.952;2023-02-11T00:03:49;-3276.30;69.90
7447;DHT22;3765;47.962;7.952;2023-02-11T00:06:17;-3276.40;69.80
7447;DHT22;3765;47.962;7.952;2023-02-11T00:08:45;-3276.40;69.80
7447;DHT22;3765;47.962;7.952;2023-02-11T00:11:15;-3276.40;69.70
7447;DHT22;3765;47.962;7.952;2023-02-11T00:13:45;-3276.40;69.70
7447;DHT22;3765;47.962;7.952;2023-02-11T00:16:16;-3276.30;69.60
7447;DHT22;3765;47.962;7.952;2023-02-11T00:18:45;-3276.30;69.70
7447;DHT22;3765;47.962;7.952;2023-02-11T00:21:16;-3276.30;69.70
7447;DHT22;3765;47.962;7.952;2023-02-11T00:23:45;-3276.30;69.80
7447;DHT22;3765;47.962;7.952;2023-02-11T00:26:15;-3276.20;69.70
7447;DHT22;3765;47.962;7.952;2023-02-11T00:28:44;-3276.20;69.70
7447;DHT22;3765;47.962;7.952;2023-02-11T00:31:15;-3276.20;69.80
7447;DHT22;3765;47.962;7.952;2023-02-11T00:33:44;-3276.10;69.70
7447;DHT22;3765;47.962;7.952;2023-02-11T00:36:14;-3276.10;69.80
7447;DHT22;3765;47.962;7.952;2023-02-11T00:38:43;-3276.10;69.70
7447;DHT22;3765;47.962;7.952;2023-02-11T00:41:12;-3276.10;69.80
7447;DHT22;3765;47.962;7.952;2023-02-11T00:43:41;-3276.10;69.90
7447;DHT22;3765;47.962;7.952;2023-02-11T00:46:10;-3276.10;69.80
7447;DHT22;3765;47.962;7.952;2023-02-11T00:48:40;-3275.90;69.70
7447;DHT22;3765;47.962;7.952;2023-02-11T00:51:08;-3276.00;69.90
7447;DHT22;3765;47.962;7.952;2023-02-11T00:53:37;-3276.00;69.80
7447;DHT22;3765;47.962;7.952;2023-02-11T00:56:06;-3276.00;69.80
7447;DHT22;3765;47.962;7.952;2023-02-11T00:58:34;-3275.90;69.60
7447;DHT22;3765;47.962;7.952;2023-02-11T01:01:03;-3275.80;69.60
7447;DHT22;3765;47.962;7.952;2023-02-11T01:03:32;-3275.80;69.80
7447;DHT22;3765;47.962;7.952;2023-02-11T01:06:02;-3275.70;69.60
7447;DHT22;3765;47.962;7.952;2023-02-11T01:08:30;-3275.70;69.80
7447;DHT22;3765;47.962;7.952;2023-02-11T01:11:00;-3275.70;69.80
7447;DHT22;3765;47.962;7.952;2023-02-11T01:13:30;-3275.80;69.80
7447;DHT22;3765;47.962;7.952;2023-02-11T01:15:59;-3275.80;69.70
7447;DHT22;3765;47.962;7.952;2023-02-11T01:18:27;-3275.90;69.60
7447;DHT22;3765;47.962;7.952;2023-02-11T01:20:56;-3275.90;69.50
7447;DHT22;3765;47.962;7.952;2023-02-11T01:23:25;-3275.80;69.30
7447;DHT22;3765;47.962;7.952;2023-02-11T01:25:54;-3275.80;69.40
7447;DHT22;3765;47.962;7.952;2023-02-11T01:28:24;-3275.80;69.30
7447;DHT22;3765;47.962;7.952;2023-02-11T01:30:53;-3275.90;69.30
7447;DHT22;3765;47.962;7.952;2023-02-11T01:33:22;-3276.00;69.30
7447;DHT22;3765;47.962;7.952;2023-02-11T01:35:50;-3276.00;69.20
7447;DHT22;3765;47.962;7.952;2023-02-11T01:38:21;-3276.00;69.20
7447;DHT22;3765;47.962;7.952;2023-02-11T01:40:53;-3276.00;69.10
7447;DHT22;3765;47.962;7.952;2023-02-11T01:43:23;-3276.00;68.90
7447;DHT22;3765;47.962;7.952;2023-02-11T01:46:13;-3275.90;69.00
7447;DHT22;3765;47.962;7.952;2023-02-11T01:48:46;-3276.00;69.10
7447;DHT22;3765;47.962;7.952;2023-02-11T01:51:19;-3276.00;69.00
7447;DHT22;3765;47.962;7.952;2023-02-11T01:53:49;-3275.90;69.00
7447;DHT22;3765;47.962;7.952;2023-02-11T01:56:38;-3275.80;69.00
7447;DHT22;3765;47.962;7.952;2023-02-11T01:59:29;-3275.80;69.20
7447;DHT22;3765;47.962;7.952;2023-02-11T02:02:02;-3275.80;69.10
7447;DHT22;3765;47.962;7.952;2023-02-11T02:04:35;-3275.70;69.10
7447;DHT22;3765;47.962;7.952;2023-02-11T02:07:09;-3275.70;69.10
7447;DHT22;3765;47.962;7.952;2023-02-11T02:09:42;-3275.70;69.10
7447;DHT22;3765;47.962;7.952;2023-02-11T02:12:12;-3275.60;69.20
7447;DHT22;3765;47.962;7.952;2023-02-11T02:14:41;-3275.60;69.40
7447;DHT22;3765;47.962;7.952;2023-02-11T02:17:15;-3275.70;69.50
7447;DHT22;3765;47.962;7.952;2023-02-11T02:20:12;-3275.70;69.40
7447;DHT22;3765;47.962;7.952;2023-02-11T02:26:13;-3275.50;69.30
7447;DHT22;3765;47.962;7.952;2023-02-11T02:32:19;-3275.50;69.50
7447;DHT22;3765;47.962;7.952;2023-02-11T02:34:52;-3275.50;69.40
7447;DHT22;3765;47.962;7.952;2023-02-11T02:37:27;-3275.50;69.40
7447;DHT22;3765;47.962;7.952;2023-02-11T02:39:58;-3275.50;69.40
7447;DHT22;3765;47.962;7.952;2023-02-11T02:42:28;-3275.60;69.40
7447;DHT22;3765;47.962;7.952;2023-02-11T02:44:57;-3275.60;69.30
7447;DHT22;3765;47.962;7.952;2023-02-11T02:47:27;-3275.50;69.30
7447;DHT22;3765;47.962;7.952;2023-02-11T02:49:55;-3275.50;69.40
7447;DHT22;3765;47.962;7.952;2023-02-11T02:52:30;-3275.50;69.40
7447;DHT22;3765;47.962;7.952;2023-02-11T02:55:11;-3275.60;69.40
7447;DHT22;3765;47.962;7.952;2023-02-11T02:57:57;-3275.60;69.30
7447;DHT22;3765;47.962;7.952;2023-02-11T03:00:34;-3275.70;69.30
7447;DHT22;3765;47.962;7.952;2023-02-11T03:03:16;-3275.60;69.30
7447;DHT22;3765;47.962;7.952;2023-02-11T03:05:51;-3275.60;69.30
7447;DHT22;3765;47.962;7.952;2023-02-11T03:08:30;-3275.60;69.30
7447;DHT22;3765;47.962;7.952;2023-02-11T03:11:05;-3275.50;69.40
7447;DHT22;3765;47.962;7.952;2023-02-11T03:13:46;-3275.60;69.50
7447;DHT22;3765;47.962;7.952;2023-02-11T03:16:26;-3275.70;69.40
7447;DHT22;3765;47.962;7.952;2023-02-11T03:19:10;-3275.70;69.30
7447;DHT22;3765;47.962;7.952;2023-02-11T03:21:43;-3275.60;69.20
7447;DHT22;3765;47.962;7.952;2023-02-11T03:24:21;-3275.50;69.30
7447;DHT22;3765;47.962;7.952;2023-02-11T03:27:00;-3275.50;69.30
7447;DHT22;3765;47.962;7.952;2023-02-11T03:29:37;-3275.30;69.20
7447;DHT22;3765;47.962;7.952;2023-02-11T03:32:16;-3275.30;69.40
7447;DHT22;3765;47.962;7.952;2023-02-11T03:34:56;-3275.30;69.30
7447;DHT22;3765;47.962;7.952;2023-02-11T03:37:32;-3275.30;69.40
7447;DHT22;3765;47.962;7.952;2023-02-11T03:40:08;-3275.20;69.50
7447;DHT22;3765;47.962;7.952;2023-02-11T03:42:42;-3275.20;69.50
7447;DHT22;3765;47.962;7.952;2023-02-11T03:45:17;-3275.30;69.60
7447;DHT22;3765;47.962;7.952;2023-02-11T03:47:53;-3275.30;69.50
7447;DHT22;3765;47.962;7.952;2023-02-11T03:50:30;-3275.40;69.40
7447;DHT22;3765;47.962;7.952;2023-02-11T03:53:04;-3275.40;69.40
7447;DHT22;3765;47.962;7.952;2023-02-11T03:55:37;-3275.40;69.30
7447;DHT22;3765;47.962;7.952;2023-02-11T03:58:07;-3275.40;69.30
7447;DHT22;3765;47.962;7.952;2023-02-11T04:00:38;-3275.50;69.30
7447;DHT22;3765;47.962;7.952;2023-02-11T04:03:08;-3275.40;69.10
7447;DHT22;3765;47.962;7.952;2023-02-11T04:05:41;-3275.50;69.30
7447;DHT22;3765;47.962;7.952;2023-02-11T04:08:09;-3275.50;69.20
7447;DHT22;3765;47.962;7.952;2023-02-11T04:10:41;-3275.60;69.10
7447;DHT22;3765;47.962;7.952;2023-02-11T04:13:20;-3275.60;69.00
7447;DHT22;3765;47.962;7.952;2023-02-11T04:15:49;-3275.60;69.10
7447;DHT22;3765;47.962;7.952;2023-02-11T04:18:21;-3275.70;69.10
7447;DHT22;3765;47.962;7.952;2023-02-11T04:20:54;-3275.50;68.90
7447;DHT22;3765;47.962;7.952;2023-02-11T04:23:23;-3275.40;69.00
7447;DHT22;3765;47.962;7.952;2023-02-11T04:25:52;-3275.40;69.10
7447;DHT22;3765;47.962;7.952;2023-02-11T04:28:25;-3275.50;69.10
7447;DHT22;3765;47.962;7.952;2023-02-11T04:30:57;-3275.50;69.10
7447;DHT22;3765;47.962;7.952;2023-02-11T04:33:27;-3275.60;69.00
7447;DHT22;3765;47.962;7.952;2023-02-11T04:36:06;-3275.50;68.80
7447;DHT22;3765;47.962;7.952;2023-02-11T04:38:36;-3275.50;68.90
7447;DHT22;3765;47.962;7.952;2023-02-11T04:41:07;-3275.50;68.90
7447;DHT22;3765;47.962;7.952;2023-02-11T04:43:36;-3275.50;69.00
7447;DHT22;3765;47.962;7.952;2023-02-11T04:46:04;-3275.60;68.90
7447;DHT22;3765;47.962;7.952;2023-02-11T04:48:34;-3275.60;68.80
7447;DHT22;3765;47.962;7.952;2023-02-11T04:51:02;-3275.50;68.70
7447;DHT22;3765;47.962;7.952;2023-02-11T04:53:32;-3275.40;68.70
7447;DHT22;3765;47.962;7.952;2023-02-11T04:56:03;-3275.40;68.90
7447;DHT22;3765;47.962;7.952;2023-02-11T04:58:32;-3275.50;69.00
7447;DHT22;3765;47.962;7.952;2023-02-11T05:01:06;-3275.50;68.90
7447;DHT22;3765;47.962;7.952;2023-02-11T05:03:36;-3275.50;68.90
7447;DHT22;3765;47.962;7.952;2023-02-11T05:06:09;-3275.60;68.90
7447;DHT22;3765;47.962;7.952;2023-02-11T05:08:42;-3275.50;68.80
7447;DHT22;3765;47.962;7.952;2023-02-11T05:11:15;-3275.50;68.90
7447;DHT22;3765;47.962;7.952;2023-02-11T05:13:44;-3275.50;68.80
7447;DHT22;3765;47.962;7.952;2023-02-11T05:16:15;-3275.40;69.00
7447;DHT22;3765;47.962;7.952;2023-02-11T05:18:44;-3275.40;69.00
7447;DHT22;3765;47.962;7.952;2023-02-11T05:21:15;-3275.40;69.00
7447;DHT22;3765;47.962;7.952;2023-02-11T05:23:45;-3275.30;69.00
7447;DHT22;3765;47.962;7.952;2023-02-11T05:26:15;-3275.30;69.10
7447;DHT22;3765;47.962;7.952;2023-02-11T05:28:44;-3275.20;68.90
7447;DHT22;3765;47.962;7.952;2023-02-11T05:31:12;-3275.00;68.90
7447;DHT22;3765;47.962;7.952;2023-02-11T05:33:44;-3274.90;69.10
7447;DHT22;3765;47.962;7.952;2023-02-11T05:36:12;-3274.90;69.20
7447;DHT22;3765;47.962;7.952;2023-02-11T05:38:45;-3275.00;69.50
7447;DHT22;3765;47.962;7.952;2023-02-11T05:41:14;-3275.20;69.50
7447;DHT22;3765;47.962;7.952;2023-02-11T05:43:43;-3275.30;69.40
7447;DHT22;3765;47.962;7.952;2023-02-11T05:46:12;-3275.40;69.20
7447;DHT22;3765;47.962;7.952;2023-02-11T05:48:44;-3275.50;69.30
7447;DHT22;3765;47.962;7.952;2023-02-11T05:51:12;-3275.70;69.10
7447;DHT22;3765;47.962;7.952;2023-02-11T05:53:46;-3275.60;69.00
7447;DHT22;3765;47.962;7.952;2023-02-11T05:56:15;-3275.60;69.00
7447;DHT22;3765;47.962;7.952;2023-02-11T05:58:51;-3275.50;68.80
7447;DHT22;3765;47.962;7.952;2023-02-11T06:01:19;-3275.70;69.10
7447;DHT22;3765;47.962;7.952;2023-02-11T06:03:47;-3275.70;68.90
7447;DHT22;3765;47.962;7.952;2023-02-11T06:06:17;-3275.70;68.80
7447;DHT22;3765;47.962;7.952;2023-02-11T06:08:46;-3275.70;69.00
7447;DHT22;3765;47.962;7.952;2023-02-11T06:11:15;-3275.80;69.10
7447;DHT22;3765;47.962;7.952;2023-02-11T06:13:43;-3275.80;69.00
7447;DHT22;3765;47.962;7.952;2023-02-11T06:16:11;-3275.80;69.00
7447;DHT22;3765;47.962;7.952;2023-02-11T06:18:43;-3275.90;69.00
7447;DHT22;3765;47.962;7.952;2023-02-11T06:21:11;-3275.90;69.00
7447;DHT22;3765;47.962;7.952;2023-02-11T06:23:41;-3275.90;68.90
7447;DHT22;3765;47.962;7.952;2023-02-11T06:26:16;-3275.90;69.00
7447;DHT22;3765;47.962;7.952;2023-02-11T06:28:45;-3275.80;68.90
7447;DHT22;3765;47.962;7.952;2023-02-11T06:31:14;-3275.70;68.80
7447;DHT22;3765;47.962;7.952;2023-02-11T06:33:42;-3275.60;69.00
7447;DHT22;3765;47.962;7.952;2023-02-11T06:36:14;-3275.50;69.00
7447;DHT22;3765;47.962;7.952;2023-02-11T06:38:44;-3275.60;69.30
7447;DHT22;3765;47.962;7.952;2023-02-11T06:41:18;-3275.70;69.30
7447;DHT22;3765;47.962;7.952;2023-02-11T06:43:47;-3275.70;69.10
7447;DHT22;3765;47.962;7.952;2023-02-11T06:46:15;-3275.60;68.80
7447;DHT22;3765;47.962;7.952;2023-02-11T06:48:44;-3275.50;69.10
7447;DHT22;3765;47.962;7.952;2023-02-11T06:51:13;-3275.50;69.30
7447;DHT22;3765;47.962;7.952;2023-02-11T06:53:44;-3275.70;69.40
7447;DHT22;3765;47.962;7.952;2023-02-11T06:56:17;-3275.80;69.20
7447;DHT22;3765;47.962;7.952;2023-02-11T06:58:53;-3275.80;69.10
7447;DHT22;3765;47.962;7.952;2023-02-11T07:01:23;-3275.90;69.00
7447;DHT22;3765;47.962;7.952;2023-02-11T07:03:52;-3276.00;69.00
7447;DHT22;3765;47.962;7.952;2023-02-11T07:06:23;-3276.00;68.90
7447;DHT22;3765;47.962;7.952;2023-02-11T07:08:55;-3276.10;68.90
7447;DHT22;3765;47.962;7.952;2023-02-11T07:11:27;-3276.00;68.60
7447;DHT22;3765;47.962;7.952;2023-02-11T07:13:59;-3276.10;68.80
7447;DHT22;3765;47.962;7.952;2023-02-11T07:16:29;-3276.10;68.50
7447;DHT22;3765;47.962;7.952;2023-02-11T07:18:58;-3276.10;68.60
7447;DHT22;3765;47.962;7.952;2023-02-11T07:21:29;-3276.20;68.70
7447;DHT22;3765;47.962;7.952;2023-02-11T07:23:58;-3276.30;68.50
7447;DHT22;3765;47.962;7.952;2023-02-11T07:26:27;-3276.50;68.60
7447;DHT22;3765;47.962;7.952;2023-02-11T07:28:57;-3276.70;68.50
7447;DHT22;3765;47.962;7.952;2023-02-11T07:31:27;-3276.60;68.20
7447;DHT22;3765;47.962;7.952;2023-02-11T07:33:59;0.00;68.50
7447;DHT22;3765;47.962;7.952;2023-02-11T07:36:31;0.10;68.40
7447;DHT22;3765;47.962;7.952;2023-02-11T07:39:06;0.20;68.00
7447;DHT22;3765;47.962;7.952;2023-02-11T07:41:37;0.30;68.10
7447;DHT22;3765;47.962;7.952;2023-02-11T07:44:05;0.30;68.00
7447;DHT22;3765;47.962;7.952;2023-02-11T07:46:36;0.40;68.10
7447;DHT22;3765;47.962;7.952;2023-02-11T07:49:11;0.40;68.10
7447;DHT22;3765;47.962;7.952;2023-02-11T07:51:42;0.40;68.00
7447;DHT22;3765;47.962;7.952;2023-02-11T07:54:13;0.40;67.90
7447;DHT22;3765;47.962;7.952;2023-02-11T07:56:42;0.50;68.00
7447;DHT22;3765;47.962;7.952;2023-02-11T07:59:11;0.60;67.90
7447;DHT22;3765;47.962;7.952;2023-02-11T08:01:42;0.60;67.60
7447;DHT22;3765;47.962;7.952;2023-02-11T08:04:11;0.60;67.70
7447;DHT22;3765;47.962;7.952;2023-02-11T08:06:41;0.80;67.70
7447;DHT22;3765;47.962;7.952;2023-02-11T08:09:14;1.00;67.60
7447;DHT22;3765;47.962;7.952;2023-02-11T08:11:46;1.40;67.40
7447;DHT22;3765;47.962;7.952;2023-02-11T08:14:14;1.50;67.00
7447;DHT22;3765;47.962;7.952;2023-02-11T08:16:43;1.70;66.70
7447;DHT22;3765;47.962;7.952;2023-02-11T08:19:14;1.70;66.50
7447;DHT22;3765;47.962;7.952;2023-02-11T08:21:43;1.60;66.10
7447;DHT22;3765;47.962;7.952;2023-02-11T08:24:15;1.60;66.50
7447;DHT22;3765;47.962;7.952;2023-02-11T08:26:47;1.80;66.50
7447;DHT22;3765;47.962;7.952;2023-02-11T08:29:16;1.90;66.10
7447;DHT22;3765;47.962;7.952;2023-02-11T08:31:46;1.90;66.10
7447;DHT22;3765;47.962;7.952;2023-02-11T08:34:16;2.10;65.70
7447;DHT22;3765;47.962;7.952;2023-02-11T08:36:47;2.00;65.50
7447;DHT22;3765;47.962;7.952;2023-02-11T08:39:18;2.00;65.40
7447;DHT22;3765;47.962;7.952;2023-02-11T08:42:04;1.90;65.40
7447;DHT22;3765;47.962;7.952;2023-02-11T08:44:34;2.00;65.80
7447;DHT22;3765;47.962;7.952;2023-02-11T08:47:02;2.00;65.80
7447;DHT22;3765;47.962;7.952;2023-02-11T08:49:31;1.90;65.70
7447;DHT22;3765;47.962;7.952;2023-02-11T08:52:02;2.00;65.90
7447;DHT22;3765;47.962;7.952;2023-02-11T08:54:32;2.10;65.80
7447;DHT22;3765;47.962;7.952;2023-02-11T08:57:00;2.20;65.50
7447;DHT22;3765;47.962;7.952;2023-02-11T08:59:31;2.20;65.50
7447;DHT22;3765;47.962;7.952;2023-02-11T09:01:59;2.30;65.50
7447;DHT22;3765;47.962;7.952;2023-02-11T09:04:27;2.50;65.20
7447;DHT22;3765;47.962;7.952;2023-02-11T09:06:57;2.70;65.20
7447;DHT22;3765;47.962;7.952;2023-02-11T09:09:26;2.90;64.80
7447;DHT22;3765;47.962;7.952;2023-02-11T09:11:55;3.00;64.40
7447;DHT22;3765;47.962;7.952;2023-02-11T09:14:26;3.10;64.10
7447;DHT22;3765;47.962;7.952;2023-02-11T09:16:58;3.10;63.90
7447;DHT22;3765;47.962;7.952;2023-02-11T09:19:29;3.20;63.70
7447;DHT22;3765;47.962;7.952;2023-02-11T09:21:58;3.20;63.30
7447;DHT22;3765;47.962;7.952;2023-02-11T09:24:30;3.40;63.20
7447;DHT22;3765;47.962;7.952;2023-02-11T09:26:59;3.40;62.90
7447;DHT22;3765;47.962;7.952;2023-02-11T09:29:28;3.60;62.70
7447;DHT22;3765;47.962;7.952;2023-02-11T09:31:59;3.80;62.50
7447;DHT22;3765;47.962;7.952;2023-02-11T09:34:29;3.80;62.40
7447;DHT22;3765;47.962;7.952;2023-02-11T09:36:57;4.00;62.10
7447;DHT22;3765;47.962;7.952;2023-02-11T09:39:25;4.20;61.90
7447;DHT22;3765;47.962;7.952;2023-02-11T09:45:03;4.50;60.80
7447;DHT22;3765;47.962;7.952;2023-02-11T09:47:38;4.50;60.40
7447;DHT22;3765;47.962;7.952;2023-02-11T09:50:14;4.50;60.40
7447;DHT22;3765;47.962;7.952;2023-02-11T09:52:51;4.70;60.20
7447;DHT22;3765;47.962;7.952;2023-02-11T09:55:24;4.60;60.20
7447;DHT22;3765;47.962;7.952;2023-02-11T09:57:53;4.80;60.20
7447;DHT22;3765;47.962;7.952;2023-02-11T10:00:25;4.90;59.90
7447;DHT22;3765;47.962;7.952;2023-02-11T10:03:14;4.90;60.00
7447;DHT22;3765;47.962;7.952;2023-02-11T10:06:11;5.00;59.70
7447;DHT22;3765;47.962;7.952;2023-02-11T10:08:56;5.10;59.40
7447;DHT22;3765;47.962;7.952;2023-02-11T10:11:32;5.10;59.40
7447;DHT22;3765;47.962;7.952;2023-02-11T10:14:17;5.10;59.50
7447;DHT22;3765;47.962;7.952;2023-02-11T10:16:58;5.30;59.50
7447;DHT22;3765;47.962;7.952;2023-02-11T10:20:14;5.40;59.40
7447;DHT22;3765;47.962;7.952;2023-02-11T10:22:49;5.60;58.90
7447;DHT22;3765;47.962;7.952;2023-02-11T10:25:23;5.60;58.50
7447;DHT22;3765;47.962;7.952;2023-02-11T10:28:00;5.50;58.50
7447;DHT22;3765;47.962;7.952;2023-02-11T10:30:44;5.70;58.50
7447;DHT22;3765;47.962;7.952;2023-02-11T10:33:28;5.80;58.10
7447;DHT22;3765;47.962;7.952;2023-02-11T10:36:17;5.90;57.70
7447;DHT22;3765;47.962;7.952;2023-02-11T10:38:48;6.00;57.80
7447;DHT22;3765;47.962;7.952;2023-02-11T10:41:29;6.20;57.40
7447;DHT22;3765;47.962;7.952;2023-02-11T10:44:06;6.30;57.20
7447;DHT22;3765;47.962;7.952;2023-02-11T10:46:36;6.30;57.10
7447;DHT22;3765;47.962;7.952;2023-02-11T10:49:37;6.30;57.10
7447;DHT22;3765;47.962;7.952;2023-02-11T10:52:19;6.30;57.00
7447;DHT22;3765;47.962;7.952;2023-02-11T10:55:04;6.40;56.90
7447;DHT22;3765;47.962;7.952;2023-02-11T10:57:57;6.50;56.80
7447;DHT22;3765;47.962;7.952;2023-02-11T11:00:34;6.60;56.50
7447;DHT22;3765;47.962;7.952;2023-02-11T11:03:14;6.70;56.30
7447;DHT22;3765;47.962;7.952;2023-02-11T11:05:48;6.70;55.80
7447;DHT22;3765;47.962;7.952;2023-02-11T11:08:39;6.80;55.50
7447;DHT22;3765;47.962;7.952;2023-02-11T11:11:10;7.10;55.60
7447;DHT22;3765;47.962;7.952;2023-02-11T11:13:40;7.30;55.30
7447;DHT22;3765;47.962;7.952;2023-02-11T11:16:21;7.40;55.00
7447;DHT22;3765;47.962;7.952;2023-02-11T11:18:51;7.60;54.80
7447;DHT22;3765;47.962;7.952;2023-02-11T11:21:46;7.70;54.40
7447;DHT22;3765;47.962;7.952;2023-02-11T11:24:23;7.80;53.10
7447;DHT22;3765;47.962;7.952;2023-02-11T11:26:57;7.60;53.30
7447;DHT22;3765;47.962;7.952;2023-02-11T11:29:32;7.70;53.40
7447;DHT22;3765;47.962;7.952;2023-02-11T11:32:03;7.80;53.00
7447;DHT22;3765;47.962;7.952;2023-02-11T11:34:34;7.80;53.10
7447;DHT22;3765;47.962;7.952;2023-02-11T11:37:10;7.90;53.10
7447;DHT22;3765;47.962;7.952;2023-02-11T11:39:41;7.90;52.20
7447;DHT22;3765;47.962;7.952;2023-02-11T11:42:24;7.80;52.00
7447;DHT22;3765;47.962;7.952;2023-02-11T11:44:57;8.00;52.30
7447;DHT22;3765;47.962;7.952;2023-02-11T11:47:36;8.20;52.10
7447;DHT22;3765;47.962;7.952;2023-02-11T11:50:25;8.40;52.00
7447;DHT22;3765;47.962;7.952;2023-02-11T11:52:58;8.70;51.50
7447;DHT22;3765;47.962;7.952;2023-02-11T11:55:35;8.80;51.40
7447;DHT22;3765;47.962;7.952;2023-02-11T11:58:11;8.80;51.30
7447;DHT22;3765;47.962;7.952;2023-02-11T12:00:45;8.90;51.00
7447;DHT22;3765;47.962;7.952;2023-02-11T12:03:42;8.80;51.10
7447;DHT22;3765;47.962;7.952;2023-02-11T12:06:31;8.70;51.00
7447;DHT22;3765;47.962;7.952;2023-02-11T12:09:11;8.80;50.90
7447;DHT22;3765;47.962;7.952;2023-02-11T12:11:58;8.90;50.70
7447;DHT22;3765;47.962;7.952;2023-02-11T12:14:33;8.90;50.50
7447;DHT22;3765;47.962;7.952;2023-02-11T12:17:08;8.90;50.30
7447;DHT22;3765;47.962;7.952;2023-02-11T12:22:51;8.90;49.90
7447;DHT22;3765;47.962;7.952;2023-02-11T12:25:26;8.90;50.40
7447;DHT22;3765;47.962;7.952;2023-02-11T12:28:06;8.80;49.50
7447;DHT22;3765;47.962;7.952;2023-02-11T12:30:52;9.00;50.40
7447;DHT22;3765;47.962;7.952;2023-02-11T12:33:38;8.90;50.00
7447;DHT22;3765;47.962;7.952;2023-02-11T12:36:18;8.80;48.30
7447;DHT22;3765;47.962;7.952;2023-02-11T12:39:02;8.80;50.10
7447;DHT22;3765;47.962;7.952;2023-02-11T12:41:44;9.30;50.00
7447;DHT22;3765;47.962;7.952;2023-02-11T12:44:40;9.30;49.70
7447;DHT22;3765;47.962;7.952;2023-02-11T12:47:19;9.60;50.00
7447;DHT22;3765;47.962;7.952;2023-02-11T12:50:03;9.90;49.70
7447;DHT22;3765;47.962;7.952;2023-02-11T12:52:47;10.00;49.20
7447;DHT22;3765;47.962;7.952;2023-02-11T12:55:22;10.10;48.90
7447;DHT22;3765;47.962;7.952;2023-02-11T12:57:53;9.80;48.20
7447;DHT22;3765;47.962;7.952;2023-02-11T13:00:27;9.70;48.80
7447;DHT22;3765;47.962;7.952;2023-02-11T13:03:02;9.80;48.80
7447;DHT22;3765;47.962;7.952;2023-02-11T13:05:36;9.80;48.60
7447;DHT22;3765;47.962;7.952;2023-02-11T13:08:10;9.80;49.00
7447;DHT22;3765;47.962;7.952;2023-02-11T13:10:44;10.00;48.90
7447;DHT22;3765;47.962;7.952;2023-02-11T13:13:18;10.10;48.90
7447;DHT22;3765;47.962;7.952;2023-02-11T13:15:52;10.50;48.80
7447;DHT22;3765;47.962;7.952;2023-02-11T13:18:35;10.80;48.40
7447;DHT22;3765;47.962;7.952;2023-02-11T13:21:30;10.60;47.90
7447;DHT22;3765;47.962;7.952;2023-02-11T13:24:07;10.20;47.90
7447;DHT22;3765;47.962;7.952;2023-02-11T13:26:41;10.00;47.20
7447;DHT22;3765;47.962;7.952;2023-02-11T13:29:21;10.10;48.30
7447;DHT22;3765;47.962;7.952;2023-02-11T13:31:55;10.50;48.50
7447;DHT22;3765;47.962;7.952;2023-02-11T13:34:57;10.80;48.30
7447;DHT22;3765;47.962;7.952;2023-02-11T13:37:30;11.20;47.80
7447;DHT22;3765;47.962;7.952;2023-02-11T13:40:01;11.10;47.30
7447;DHT22;3765;47.962;7.952;2023-02-11T13:42:32;11.30;47.00
7447;DHT22;3765;47.962;7.952;2023-02-11T13:45:01;11.10;47.10
7447;DHT22;3765;47.962;7.952;2023-02-11T13:47:32;11.20;46.60
7447;DHT22;3765;47.962;7.952;2023-02-11T13:50:04;11.00;46.50
7447;DHT22;3765;47.962;7.952;2023-02-11T13:52:35;10.90;47.00
7447;DHT22;3765;47.962;7.952;2023-02-11T13:55:08;11.10;46.70
7447;DHT22;3765;47.962;7.952;2023-02-11T13:57:41;11.20;46.70
7447;DHT22;3765;47.962;7.952;2023-02-11T14:03:29;11.20;46.40
7447;DHT22;3765;47.962;7.952;2023-02-11T14:06:21;11.30;46.30
7447;DHT22;3765;47.962;7.952;2023-02-11T14:09:32;11.30;46.00
7447;DHT22;3765;47.962;7.952;2023-02-11T14:12:21;11.90;45.80
7447;DHT22;3765;47.962;7.952;2023-02-11T14:15:20;11.90;45.10
7447;DHT22;3765;47.962;7.952;2023-02-11T14:17:52;11.90;45.10
7447;DHT22;3765;47.962;7.952;2023-02-11T14:20:36;12.20;45.10
7447;DHT22;3765;47.962;7.952;2023-02-11T14:23:05;12.20;44.70
7447;DHT22;3765;47.962;7.952;2023-02-11T14:25:34;12.00;44.30
7447;DHT22;3765;47.962;7.952;2023-02-11T14:28:10;12.10;44.50
7447;DHT22;3765;47.962;7.952;2023-02-11T14:30:44;12.10;44.20
7447;DHT22;3765;47.962;7.952;2023-02-11T14:36:57;12.50;44.00
7447;DHT22;3765;47.962;7.952;2023-02-11T14:39:44;12.30;43.80
7447;DHT22;3765;47.962;7.952;2023-02-11T14:42:18;12.20;44.40
7447;DHT22;3765;47.962;7.952;2023-02-11T14:44:49;12.10;43.80
7447;DHT22;3765;47.962;7.952;2023-02-11T14:47:19;12.10;43.80
7447;DHT22;3765;47.962;7.952;2023-02-11T14:49:48;12.00;43.70
7447;DHT22;3765;47.962;7.952;2023-02-11T14:52:25;11.90;43.80
7447;DHT22;3765;47.962;7.952;2023-02-11T14:55:01;12.10;43.70
7447;DHT22;3765;47.962;7.952;2023-02-11T14:57:33;12.30;43.60
7447;DHT22;3765;47.962;7.952;2023-02-11T15:00:17;12.50;43.40
7447;DHT22;3765;47.962;7.952;2023-02-11T15:02:46;12.50;43.20
7447;DHT22;3765;47.962;7.952;2023-02-11T15:05:16;12.30;43.00
7447;DHT22;3765;47.962;7.952;2023-02-11T15:07:49;11.90;43.10
7447;DHT22;3765;47.962;7.952;2023-02-11T15:10:24;12.00;43.50
7447;DHT22;3765;47.962;7.952;2023-02-11T15:12:54;12.10;43.30
7447;DHT22;3765;47.962;7.952;2023-02-11T15:15:22;12.00;43.20
7447;DHT22;3765;47.962;7.952;2023-02-11T15:17:50;11.90;43.40
7447;DHT22;3765;47.962;7.952;2023-02-11T15:20:21;12.20;43.20
7447;DHT22;3765;47.962;7.952;2023-02-11T15:22:55;11.90;42.70
7447;DHT22;3765;47.962;7.952;2023-02-11T15:25:24;11.30;43.00
7447;DHT22;3765;47.962;7.952;2023-02-11T15:27:55;10.90;43.30
7447;DHT22;3765;47.962;7.952;2023-02-11T15:30:27;10.70;43.60
7447;DHT22;3765;47.962;7.952;2023-02-11T15:32:56;10.50;43.70
7447;DHT22;3765;47.962;7.952;2023-02-11T15:35:28;10.30;43.80
7447;DHT22;3765;47.962;7.952;2023-02-11T15:38:01;10.10;44.00
7447;DHT22;3765;47.962;7.952;2023-02-11T15:40:31;9.90;44.20
7447;DHT22;3765;47.962;7.952;2023-02-11T15:43:01;9.60;44.40
7447;DHT22;3765;47.962;7.952;2023-02-11T15:45:31;9.50;44.60
7447;DHT22;3765;47.962;7.952;2023-02-11T15:48:06;9.40;45.00
7447;DHT22;3765;47.962;7.952;2023-02-11T15:50:37;9.30;45.40
7447;DHT22;3765;47.962;7.952;2023-02-11T15:53:21;9.00;45.70
7447;DHT22;3765;47.962;7.952;2023-02-11T15:55:53;8.60;46.30
7447;DHT22;3765;47.962;7.952;2023-02-11T15:58:24;8.50;46.70
7447;DHT22;3765;47.962;7.952;2023-02-11T16:00:52;8.20;47.00
7447;DHT22;3765;47.962;7.952;2023-02-11T16:03:27;8.00;47.30
7447;DHT22;3765;47.962;7.952;2023-02-11T16:06:14;7.80;47.70
7447;DHT22;3765;47.962;7.952;2023-02-11T16:08:55;7.70;47.90
7447;DHT22;3765;47.962;7.952;2023-02-11T16:11:26;7.40;48.20
7447;DHT22;3765;47.962;7.952;2023-02-11T16:13:57;7.30;48.50
7447;DHT22;3765;47.962;7.952;2023-02-11T16:16:33;7.10;48.80
7447;DHT22;3765;47.962;7.952;2023-02-11T16:19:02;7.00;49.20
7447;DHT22;3765;47.962;7.952;2023-02-11T16:21:36;7.00;49.30
7447;DHT22;3765;47.962;7.952;2023-02-11T16:24:18;6.90;49.30
7447;DHT22;3765;47.962;7.952;2023-02-11T16:26:49;6.80;49.50
7447;DHT22;3765;47.962;7.952;2023-02-11T16:29:22;6.60;49.70
7447;DHT22;3765;47.962;7.952;2023-02-11T16:31:53;6.40;49.90
7447;DHT22;3765;47.962;7.952;2023-02-11T16:34:23;6.30;50.20
7447;DHT22;3765;47.962;7.952;2023-02-11T16:36:51;6.10;50.50
7447;DHT22;3765;47.962;7.952;2023-02-11T16:39:21;6.00;50.60
7447;DHT22;3765;47.962;7.952;2023-02-11T16:41:50;5.90;51.00
7447;DHT22;3765;47.962;7.952;2023-02-11T16:44:19;5.60;51.30
7447;DHT22;3765;47.962;7.952;2023-02-11T16:46:47;5.50;51.70
7447;DHT22;3765;47.962;7.952;2023-02-11T16:49:19;5.50;52.00